sensor_id;sensor_type;location;lat;lon;timestamp;temperature;humidity
4058;DHT22;2044;48.692;9.020;2022-12-29T00:00:17;8.10;48.20
4058;DHT22;2044;48.692;9.020;2022-12-29T00:02:46;8.10;1.00
4058;DHT22;2044;48.692;9.020;2022-12-29T00:05:12;8.20;99.90
4058;DHT22;2044;48.692;9.020;2022-12-29T00:07:39;8.20;1.00
4058;DHT22;2044;48.692;9.020;2022-12-29T00:10:06;8.20;1.00
4058;DHT22;2044;48.692;9.020;2022-12-29T00:12:33;8.20;1.00
4058;DHT22;2044;48.692;9.020;2022-12-29T00:15:14;8.30;1.00
4058;DHT22;2044;48.692;9.020;2022-12-29T00:17:59;8.30;99.90
4058;DHT22;2044;48.692;9.020;2022-12-29T00:20:26;8.30;99.90
4058;DHT22;2044;48.692;9.020;2022-12-29T00:23:10;8.30;99.90
4058;DHT22;2044;48.692;9.020;2022-12-29T00:25:55;8.30;99.90
4058;DHT22;2044;48.692;9.020;2022-12-29T00:28:39;8.30;1.00
4058;DHT22;2044;48.692;9.020;2022-12-29T00:31:23;8.30;1.00
4058;DHT22;2044;48.692;9.020;2022-12-29T00:34:10;8.30;1.00
4058;DHT22;2044;48.692;9.020;2022-12-29T00:36:55;8.40;99.90
4058;DHT22;2044;48.692;9.020;2022-12-29T00:39:22;8.50;99.90
4058;DHT22;2044;48.692;9.020;2022-12-29T00:42:07;8.50;99.90
4058;DHT22;2044;48.692;9.020;2022-12-29T00:44:52;8.50;99.90
4058;DHT22;2044;48.692;9.020;2022-12-29T00:47:18;8.60;99.90
4058;DHT22;2044;48.692;9.020;2022-12-29T00:49:46;8.60;99.90
4058;DHT22;2044;48.692;9.020;2022-12-29T00:52:13;8.60;49.20
4058;DHT22;2044;48.692;9.020;2022-12-29T00:54:41;8.70;1.00
4058;DHT22;2044;48.692;9.020;2022-12-29T00:57:10;8.70;1.00
4058;DHT22;2044;48.692;9.020;2022-12-29T00:59:38;8.60;1.00
4058;DHT22;2044;48.692;9.020;2022-12-29T01:02:05;8.60;99.90
4058;DHT22;2044;48.692;9.020;2022-12-29T01:04:32;8.60;99.90
4058;DHT22;2044;48.692;9.020;2022-12-29T01:07:00;8.60;62.40
4058;DHT22;2044;48.692;9.020;2022-12-29T01:09:27;8.60;1.00
4058;DHT22;2044;48.692;9.020;2022-12-29T01:12:11;8.70;1.00
4058;DHT22;2044;48.692;9.020;2022-12-29T01:14:38;8.70;1.00
4058;DHT22;2044;48.692;9.020;2022-12-29T01:17:05;8.70;1.00
4058;DHT22;2044;48.692;9.020;2022-12-29T01:19:32;8.80;1.00
4058;DHT22;2044;48.692;9.020;2022-12-29T01:22:00;8.80;1.00
4058;DHT22;2044;48.692;9.020;2022-12-29T01:24:27;8.80;1.00
4058;DHT22;2044;48.692;9.020;2022-12-29T01:26:54;8.90;1.00
4058;DHT22;2044;48.692;9.020;2022-12-29T01:29:21;9.00;99.90
4058;DHT22;2044;48.692;9.020;2022-12-29T01:31:47;9.00;99.90
4058;DHT22;2044;48.692;9.020;2022-12-29T01:34:15;9.10;62.30
4058;DHT22;2044;48.692;9.020;2022-12-29T01:36:41;9.00;99.90
4058;DHT22;2044;48.692;9.020;2022-12-29T01:39:09;9.00;99.90
4058;DHT22;2044;48.692;9.020;2022-12-29T01:41:36;9.10;14.80
4058;DHT22;2044;48.692;9.020;2022-12-29T01:46:47;9.20;1.00
4058;DHT22;2044;48.692;9.020;2022-12-29T01:49:16;9.20;1.00
4058;DHT22;2044;48.692;9.020;2022-12-29T01:51:49;9.30;1.00
4058;DHT22;2044;48.692;9.020;2022-12-29T01:54:24;9.20;1.00
4058;DHT22;2044;48.692;9.020;2022-12-29T01:56:53;9.20;1.00
4058;DHT22;2044;48.692;9.020;2022-12-29T01:59:23;9.20;1.00
4058;DHT22;2044;48.692;9.020;2022-12-29T02:01:51;9.20;1.00
4058;DHT22;2044;48.692;9.020;2022-12-29T02:04:18;9.20;1.00
4058;DHT22;2044;48.692;9.020;2022-12-29T02:06:49;9.20;1.00
4058;DHT22;2044;48.692;9.020;2022-12-29T02:09:19;9.40;1.00
4058;DHT22;2044;48.692;9.020;2022-12-29T02:11:46;9.40;1.00
4058;DHT22;2044;48.692;9.020;2022-12-29T02:14:15;9.40;1.00
4058;DHT22;2044;48.692;9.020;2022-12-29T02:16:52;9.40;99.90
4058;DHT22;2044;48.692;9.020;2022-12-29T02:19:48;9.40;1.00
4058;DHT22;2044;48.692;9.020;2022-12-29T02:22:27;9.40;1.00
4058;DHT22;2044;48.692;9.020;2022-12-29T02:25:32;9.40;1.00
4058;DHT22;2044;48.692;9.020;2022-12-29T02:28:29;9.40;1.00
4058;DHT22;2044;48.692;9.020;2022-12-29T02:33:43;9.50;99.90
4058;DHT22;2044;48.692;9.020;2022-12-29T02:36:18;9.60;99.90
4058;DHT22;2044;48.692;9.020;2022-12-29T02:38:56;9.60;99.90
4058;DHT22;2044;48.692;9.020;2022-12-29T02:41:31;9.60;99.90
4058;DHT22;2044;48.692;9.020;2022-12-29T02:44:04;9.60;99.90
4058;DHT22;2044;48.692;9.020;2022-12-29T02:46:40;9.50;99.90
4058;DHT22;2044;48.692;9.020;2022-12-29T02:49:11;9.70;99.90
4058;DHT22;2044;48.692;9.020;2022-12-29T02:51:44;9.70;99.90
4058;DHT22;2044;48.692;9.020;2022-12-29T02:54:13;9.80;99.90
4058;DHT22;2044;48.692;9.020;2022-12-29T02:56:57;9.90;99.90
4058;DHT22;2044;48.692;9.020;2022-12-29T02:59:24;10.00;52.00
4058;DHT22;2044;48.692;9.020;2022-12-29T03:02:06;10.10;1.00
4058;DHT22;2044;48.692;9.020;2022-12-29T03:04:50;10.10;1.00
4058;DHT22;2044;48.692;9.020;2022-12-29T03:07:25;10.20;1.00
4058;DHT22;2044;48.692;9.020;2022-12-29T03:10:04;10.30;1.00
4058;DHT22;2044;48.692;9.020;2022-12-29T03:12:41;10.20;1.00
4058;DHT22;2044;48.692;9.020;2022-12-29T03:15:34;10.20;1.00
4058;DHT22;2044;48.692;9.020;2022-12-29T03:18:44;10.30;1.00
4058;DHT22;2044;48.692;9.020;2022-12-29T03:21:14;10.30;1.00
4058;DHT22;2044;48.692;9.020;2022-12-29T03:23:43;10.30;1.00
4058;DHT22;2044;48.692;9.020;2022-12-29T03:26:14;10.50;1.00
4058;DHT22;2044;48.692;9.020;2022-12-29T03:28:46;10.50;1.00
4058;DHT22;2044;48.692;9.020;2022-12-29T03:31:14;10.40;1.00
4058;DHT22;2044;48.692;9.020;2022-12-29T03:33:43;10.40;1.00
4058;DHT22;2044;48.692;9.020;2022-12-29T03:36:17;10.40;1.00
4058;DHT22;2044;48.692;9.020;2022-12-29T03:38:50;10.50;1.00
4058;DHT22;2044;48.692;9.020;2022-12-29T03:41:23;10.30;99.90
4058;DHT22;2044;48.692;9.020;2022-12-29T03:43:52;10.30;99.90
4058;DHT22;2044;48.692;9.020;2022-12-29T03:46:18;10.40;99.90
4058;DHT22;2044;48.692;9.020;2022-12-29T03:48:46;10.40;99.90
4058;DHT22;2044;48.692;9.020;2022-12-29T03:51:13;10.40;99.90
4058;DHT22;2044;48.692;9.020;2022-12-29T03:53:40;10.30;99.90
4058;DHT22;2044;48.692;9.020;2022-12-29T03:56:06;10.30;99.90
4058;DHT22;2044;48.692;9.020;2022-12-29T03:58:34;10.10;1.00
4058;DHT22;2044;48.692;9.020;2022-12-29T04:01:00;10.10;1.00
4058;DHT22;2044;48.692;9.020;2022-12-29T04:03:27;10.20;1.00
4058;DHT22;2044;48.692;9.020;2022-12-29T04:05:55;10.00;1.00
4058;DHT22;2044;48.692;9.020;2022-12-29T04:08:22;9.90;99.90
4058;DHT22;2044;48.692;9.020;2022-12-29T04:10:49;10.00;99.90
4058;DHT22;2044;48.692;9.020;2022-12-29T04:13:15;9.90;99.90
4058;DHT22;2044;48.692;9.020;2022-12-29T04:15:42;9.90;99.90
4058;DHT22;2044;48.692;9.020;2022-12-29T04:18:10;9.90;99.90
4058;DHT22;2044;48.692;9.020;2022-12-29T04:20:37;9.80;1.00
4058;DHT22;2044;48.692;9.020;2022-12-29T04:23:23;9.80;1.00
4058;DHT22;2044;48.692;9.020;2022-12-29T04:25:49;9.80;82.20
4058;DHT22;2044;48.692;9.020;2022-12-29T04:28:16;9.70;99.90
4058;DHT22;2044;48.692;9.020;2022-12-29T04:30:43;9.90;82.70
4058;DHT22;2044;48.692;9.020;2022-12-29T04:33:10;9.80;99.90
4058;DHT22;2044;48.692;9.020;2022-12-29T04:35:37;9.80;99.90
4058;DHT22;2044;48.692;9.020;2022-12-29T04:38:04;9.80;99.90
4058;DHT22;2044;48.692;9.020;2022-12-29T04:40:32;9.70;1.00
4058;DHT22;2044;48.692;9.020;2022-12-29T04:42:59;9.70;1.00
4058;DHT22;2044;48.692;9.020;2022-12-29T04:45:25;9.80;1.00
4058;DHT22;2044;48.692;9.020;2022-12-29T04:47:52;9.90;99.90
4058;DHT22;2044;48.692;9.020;2022-12-29T04:50:19;9.90;99.90
4058;DHT22;2044;48.692;9.020;2022-12-29T04:52:45;9.90;99.90
4058;DHT22;2044;48.692;9.020;2022-12-29T04:55:12;10.00;99.90
4058;DHT22;2044;48.692;9.020;2022-12-29T04:57:40;9.90;1.00
4058;DHT22;2044;48.692;9.020;2022-12-29T05:00:07;10.00;99.90
4058;DHT22;2044;48.692;9.020;2022-12-29T05:02:35;9.90;1.00
4058;DHT22;2044;48.692;9.020;2022-12-29T05:05:02;9.90;1.00
4058;DHT22;2044;48.692;9.020;2022-12-29T05:07:29;9.80;1.00
4058;DHT22;2044;48.692;9.020;2022-12-29T05:09:55;9.80;99.90
4058;DHT22;2044;48.692;9.020;2022-12-29T05:12:22;9.70;99.90
4058;DHT22;2044;48.692;9.020;2022-12-29T05:14:50;9.70;99.90
4058;DHT22;2044;48.692;9.020;2022-12-29T05:17:17;9.70;1.00
4058;DHT22;2044;48.692;9.020;2022-12-29T05:19:43;9.60;1.00
4058;DHT22;2044;48.692;9.020;2022-12-29T05:22:10;9.70;99.90
4058;DHT22;2044;48.692;9.020;2022-12-29T05:24:37;9.70;99.90
4058;DHT22;2044;48.692;9.020;2022-12-29T05:27:03;9.70;99.90
4058;DHT22;2044;48.692;9.020;2022-12-29T05:29:30;9.70;1.00
4058;DHT22;2044;48.692;9.020;2022-12-29T05:31:58;9.80;99.90
4058;DHT22;2044;48.692;9.020;2022-12-29T05:34:25;9.70;99.90
4058;DHT22;2044;48.692;9.020;2022-12-29T05:36:51;9.70;99.90
4058;DHT22;2044;48.692;9.020;2022-12-29T05:39:18;9.80;99.90
4058;DHT22;2044;48.692;9.020;2022-12-29T05:41:45;11.10;99.90
4058;DHT22;2044;48.692;9.020;2022-12-29T05:44:12;9.90;1.00
4058;DHT22;2044;48.692;9.020;2022-12-29T05:46:39;9.90;1.00
4058;DHT22;2044;48.692;9.020;2022-12-29T05:49:07;9.90;1.00
4058;DHT22;2044;48.692;9.020;2022-12-29T05:51:34;10.00;99.90
4058;DHT22;2044;48.692;9.020;2022-12-29T05:54:00;10.10;99.90
4058;DHT22;2044;48.692;9.020;2022-12-29T05:56:27;10.10;99.90
4058;DHT22;2044;48.692;9.020;2022-12-29T05:58:54;10.10;99.90
4058;DHT22;2044;48.692;9.020;2022-12-29T06:01:20;10.00;99.90
4058;DHT22;2044;48.692;9.020;2022-12-29T06:03:47;10.00;99.90
4058;DHT22;2044;48.692;9.020;2022-12-29T06:06:15;9.90;1.00
4058;DHT22;2044;48.692;9.020;2022-12-29T06:08:42;10.00;99.90
4058;DHT22;2044;48.692;9.020;2022-12-29T06:11:09;10.10;99.90
4058;DHT22;2044;48.692;9.020;2022-12-29T06:13:35;10.00;99.90
4058;DHT22;2044;48.692;9.020;2022-12-29T06:16:02;10.00;99.90
4058;DHT22;2044;48.692;9.020;2022-12-29T06:18:29;10.00;99.90
4058;DHT22;2044;48.692;9.020;2022-12-29T06:20:59;10.00;91.90
4058;DHT22;2044;48.692;9.020;2022-12-29T06:23:28;9.80;99.90
4058;DHT22;2044;48.692;9.020;2022-12-29T06:25:54;9.80;99.90
4058;DHT22;2044;48.692;9.020;2022-12-29T06:28:21;9.80;99.90
4058;DHT22;2044;48.692;9.020;2022-12-29T06:30:48;9.80;99.90
4058;DHT22;2044;48.692;9.020;2022-12-29T06:33:15;9.80;1.00
4058;DHT22;2044;48.692;9.020;2022-12-29T06:35:42;9.80;1.00
4058;DHT22;2044;48.692;9.020;2022-12-29T06:38:09;9.80;1.00
4058;DHT22;2044;48.692;9.020;2022-12-29T06:40:37;9.80;1.00
4058;DHT22;2044;48.692;9.020;2022-12-29T06:43:04;9.80;99.90
4058;DHT22;2044;48.692;9.020;2022-12-29T06:45:30;9.70;99.90
4058;DHT22;2044;48.692;9.020;2022-12-29T06:47:57;9.70;99.90
4058;DHT22;2044;48.692;9.020;2022-12-29T06:50:24;9.60;99.90
4058;DHT22;2044;48.692;9.020;2022-12-29T06:52:50;9.50;1.00
4058;DHT22;2044;48.692;9.020;2022-12-29T06:55:17;9.50;99.90
4058;DHT22;2044;48.692;9.020;2022-12-29T06:57:45;9.40;1.00
4058;DHT22;2044;48.692;9.020;2022-12-29T07:00:13;9.40;1.00
4058;DHT22;2044;48.692;9.020;2022-12-29T07:02:40;9.30;1.00
4058;DHT22;2044;48.692;9.020;2022-12-29T07:05:07;9.30;1.00
4058;DHT22;2044;48.692;9.020;2022-12-29T07:07:34;9.40;1.00
4058;DHT22;2044;48.692;9.020;2022-12-29T07:10:01;9.30;15.90
4058;DHT22;2044;48.692;9.020;2022-12-29T07:12:28;9.30;19.00
4058;DHT22;2044;48.692;9.020;2022-12-29T07:14:56;9.30;59.60
4058;DHT22;2044;48.692;9.020;2022-12-29T07:17:23;9.30;92.10
4058;DHT22;2044;48.692;9.020;2022-12-29T07:19:50;9.40;1.00
4058;DHT22;2044;48.692;9.020;2022-12-29T07:22:16;9.40;8.70
4058;DHT22;2044;48.692;9.020;2022-12-29T07:24:43;9.40;1.00
4058;DHT22;2044;48.692;9.020;2022-12-29T07:27:10;9.50;1.00
4058;DHT22;2044;48.692;9.020;2022-12-29T07:29:37;9.30;99.90
4058;DHT22;2044;48.692;9.020;2022-12-29T07:32:05;9.50;1.00
4058;DHT22;2044;48.692;9.020;2022-12-29T07:34:32;9.50;1.00
4058;DHT22;2044;48.692;9.020;2022-12-29T07:36:58;9.50;1.00
4058;DHT22;2044;48.692;9.020;2022-12-29T07:39:25;9.50;1.00
4058;DHT22;2044;48.692;9.020;2022-12-29T07:41:52;9.40;99.90
4058;DHT22;2044;48.692;9.020;2022-12-29T07:44:18;9.50;92.40
4058;DHT22;2044;48.692;9.020;2022-12-29T07:46:45;9.50;1.00
4058;DHT22;2044;48.692;9.020;2022-12-29T07:49:13;9.50;31.20
4058;DHT22;2044;48.692;9.020;2022-12-29T07:51:40;9.50;99.60
4058;DHT22;2044;48.692;9.020;2022-12-29T07:54:06;9.60;1.00
4058;DHT22;2044;48.692;9.020;2022-12-29T07:56:33;9.50;95.40
4058;DHT22;2044;48.692;9.020;2022-12-29T07:59:00;9.50;99.90
4058;DHT22;2044;48.692;9.020;2022-12-29T08:01:26;9.60;1.00
4058;DHT22;2044;48.692;9.020;2022-12-29T08:03:53;9.60;14.20
4058;DHT22;2044;48.692;9.020;2022-12-29T08:06:21;9.60;99.90
4058;DHT22;2044;48.692;9.020;2022-12-29T08:08:48;9.60;99.90
4058;DHT22;2044;48.692;9.020;2022-12-29T08:11:14;9.60;99.90
4058;DHT22;2044;48.692;9.020;2022-12-29T08:13:41;9.60;99.90
4058;DHT22;2044;48.692;9.020;2022-12-29T08:16:08;9.70;99.90
4058;DHT22;2044;48.692;9.020;2022-12-29T08:18:35;9.70;89.80
4058;DHT22;2044;48.692;9.020;2022-12-29T08:21:02;9.70;99.90
4058;DHT22;2044;48.692;9.020;2022-12-29T08:23:30;9.70;90.60
4058;DHT22;2044;48.692;9.020;2022-12-29T08:25:58;9.80;1.00
4058;DHT22;2044;48.692;9.020;2022-12-29T08:28:24;9.80;1.00
4058;DHT22;2044;48.692;9.020;2022-12-29T08:30:51;9.90;1.00
4058;DHT22;2044;48.692;9.020;2022-12-29T08:33:18;9.80;1.00
4058;DHT22;2044;48.692;9.020;2022-12-29T08:35:45;9.90;1.00
4058;DHT22;2044;48.692;9.020;2022-12-29T08:38:12;9.80;99.90
4058;DHT22;2044;48.692;9.020;2022-12-29T08:40:40;9.80;99.90
4058;DHT22;2044;48.692;9.020;2022-12-29T08:43:07;9.70;99.90
4058;DHT22;2044;48.692;9.020;2022-12-29T08:45:33;9.70;1.00
4058;DHT22;2044;48.692;9.020;2022-12-29T08:48:00;9.60;1.00
4058;DHT22;2044;48.692;9.020;2022-12-29T08:50:27;9.70;99.90
4058;DHT22;2044;48.692;9.020;2022-12-29T08:55:21;9.90;1.00
4058;DHT22;2044;48.692;9.020;2022-12-29T08:57:49;9.80;1.00
4058;DHT22;2044;48.692;9.020;2022-12-29T09:00:16;9.80;44.60
4058;DHT22;2044;48.692;9.020;2022-12-29T09:02:42;10.00;1.00
4058;DHT22;2044;48.692;9.020;2022-12-29T09:05:09;10.00;1.00
4058;DHT22;2044;48.692;9.020;2022-12-29T09:07:36;10.00;99.90
4058;DHT22;2044;48.692;9.020;2022-12-29T09:10:04;10.20;99.90
4058;DHT22;2044;48.692;9.020;2022-12-29T09:12:31;10.20;58.10
4058;DHT22;2044;48.692;9.020;2022-12-29T09:15:00;10.30;1.00
4058;DHT22;2044;48.692;9.020;2022-12-29T09:17:27;10.30;1.00
4058;DHT22;2044;48.692;9.020;2022-12-29T09:20:12;10.40;1.00
4058;DHT22;2044;48.692;9.020;2022-12-29T09:22:39;10.50;1.00
4058;DHT22;2044;48.692;9.020;2022-12-29T09:25:07;10.80;99.90
4058;DHT22;2044;48.692;9.020;2022-12-29T09:27:34;11.10;57.30
4058;DHT22;2044;48.692;9.020;2022-12-29T09:30:03;11.40;1.00
4058;DHT22;2044;48.692;9.020;2022-12-29T09:32:31;11.60;99.90
4058;DHT22;2044;48.692;9.020;2022-12-29T09:34:57;11.70;1.00
4058;DHT22;2044;48.692;9.020;2022-12-29T09:37:24;11.70;99.90
4058;DHT22;2044;48.692;9.020;2022-12-29T09:39:51;11.90;99.90
4058;DHT22;2044;48.692;9.020;2022-12-29T09:42:22;11.90;99.90
4058;DHT22;2044;48.692;9.020;2022-12-29T09:45:05;11.90;99.90
4058;DHT22;2044;48.692;9.020;2022-12-29T09:47:35;11.90;99.90
4058;DHT22;2044;48.692;9.020;2022-12-29T09:50:05;11.90;99.90
4058;DHT22;2044;48.692;9.020;2022-12-29T09:52:39;11.90;1.00
4058;DHT22;2044;48.692;9.020;2022-12-29T09:55:10;11.90;1.00
4058;DHT22;2044;48.692;9.020;2022-12-29T09:57:43;11.90;1.00
4058;DHT22;2044;48.692;9.020;2022-12-29T10:00:16;12.00;1.00
4058;DHT22;2044;48.692;9.020;2022-12-29T10:02:45;12.00;99.90
4058;DHT22;2044;48.692;9.020;2022-12-29T10:05:19;12.00;1.00
4058;DHT22;2044;48.692;9.020;2022-12-29T10:07:53;11.80;1.00
4058;DHT22;2044;48.692;9.020;2022-12-29T10:10:31;11.80;1.00
4058;DHT22;2044;48.692;9.020;2022-12-29T10:13:15;11.80;1.00
4058;DHT22;2044;48.692;9.020;2022-12-29T10:15:57;11.80;1.00
4058;DHT22;2044;48.692;9.020;2022-12-29T10:18:44;11.90;1.00
4058;DHT22;2044;48.692;9.020;2022-12-29T10:21:20;12.10;1.00
4058;DHT22;2044;48.692;9.020;2022-12-29T10:23:51;12.10;1.00
4058;DHT22;2044;48.692;9.020;2022-12-29T10:26:20;12.10;1.00
4058;DHT22;2044;48.692;9.020;2022-12-29T10:28:50;12.10;1.00
4058;DHT22;2044;48.692;9.020;2022-12-29T10:31:22;12.20;1.00
4058;DHT22;2044;48.692;9.020;2022-12-29T10:33:51;12.20;1.00
4058;DHT22;2044;48.692;9.020;2022-12-29T10:36:27;12.40;1.00
4058;DHT22;2044;48.692;9.020;2022-12-29T10:39:04;12.50;99.90
4058;DHT22;2044;48.692;9.020;2022-12-29T10:41:36;12.80;99.90
4058;DHT22;2044;48.692;9.020;2022-12-29T10:44:03;12.70;99.90
4058;DHT22;2044;48.692;9.020;2022-12-29T10:46:35;12.90;99.90
4058;DHT22;2044;48.692;9.020;2022-12-29T10:49:03;12.90;99.90
4058;DHT22;2044;48.692;9.020;2022-12-29T10:51:33;12.40;99.90
4058;DHT22;2044;48.692;9.020;2022-12-29T10:54:04;12.40;99.90
4058;DHT22;2044;48.692;9.020;2022-12-29T10:56:34;12.20;1.00
4058;DHT22;2044;48.692;9.020;2022-12-29T10:59:12;12.20;1.00
4058;DHT22;2044;48.692;9.020;2022-12-29T11:01:49;12.10;1.00
4058;DHT22;2044;48.692;9.020;2022-12-29T11:04:29;12.00;1.00
4058;DHT22;2044;48.692;9.020;2022-12-29T11:07:00;12.10;1.00
4058;DHT22;2044;48.692;9.020;2022-12-29T11:09:29;12.10;1.00
4058;DHT22;2044;48.692;9.020;2022-12-29T11:11:57;12.00;1.00
4058;DHT22;2044;48.692;9.020;2022-12-29T11:14:27;11.90;1.00
4058;DHT22;2044;48.692;9.020;2022-12-29T11:16:59;12.10;1.00
4058;DHT22;2044;48.692;9.020;2022-12-29T11:19:28;12.30;1.00
4058;DHT22;2044;48.692;9.020;2022-12-29T11:22:12;12.20;1.00
4058;DHT22;2044;48.692;9.020;2022-12-29T11:24:44;12.00;30.90
4058;DHT22;2044;48.692;9.020;2022-12-29T11:27:15;11.90;99.90
4058;DHT22;2044;48.692;9.020;2022-12-29T11:29:44;11.70;99.90
4058;DHT22;2044;48.692;9.020;2022-12-29T11:32:16;11.30;99.90
4058;DHT22;2044;48.692;9.020;2022-12-29T11:34:44;11.20;1.00
4058;DHT22;2044;48.692;9.020;2022-12-29T11:37:13;11.20;1.00
4058;DHT22;2044;48.692;9.020;2022-12-29T11:39:45;11.80;99.90
4058;DHT22;2044;48.692;9.020;2022-12-29T11:42:16;11.90;99.90
4058;DHT22;2044;48.692;9.020;2022-12-29T11:44:45;12.00;99.90
4058;DHT22;2044;48.692;9.020;2022-12-29T11:47:25;12.00;1.00
4058;DHT22;2044;48.692;9.020;2022-12-29T11:49:55;11.70;1.00
4058;DHT22;2044;48.692;9.020;2022-12-29T11:52:24;11.40;99.90
4058;DHT22;2044;48.692;9.020;2022-12-29T11:54:53;11.20;1.00
4058;DHT22;2044;48.692;9.020;2022-12-29T11:57:22;11.20;1.00
4058;DHT22;2044;48.692;9.020;2022-12-29T11:59:51;11.10;99.90
4058;DHT22;2044;48.692;9.020;2022-12-29T12:02:40;11.00;1.00
4058;DHT22;2044;48.692;9.020;2022-12-29T12:05:22;11.00;23.20
4058;DHT22;2044;48.692;9.020;2022-12-29T12:07:55;11.00;95.20
4058;DHT22;2044;48.692;9.020;2022-12-29T12:10:27;11.00;99.90
4058;DHT22;2044;48.692;9.020;2022-12-29T12:13:02;11.00;1.00
4058;DHT22;2044;48.692;9.020;2022-12-29T12:15:35;10.90;1.00
4058;DHT22;2044;48.692;9.020;2022-12-29T12:18:09;10.90;1.00
4058;DHT22;2044;48.692;9.020;2022-12-29T12:20:46;12.00;99.90
4058;DHT22;2044;48.692;9.020;2022-12-29T12:23:25;10.90;99.90
4058;DHT22;2044;48.692;9.020;2022-12-29T12:26:00;11.00;1.00
4058;DHT22;2044;48.692;9.020;2022-12-29T12:28:35;10.90;1.00
4058;DHT22;2044;48.692;9.020;2022-12-29T12:31:06;10.70;1.00
4058;DHT22;2044;48.692;9.020;2022-12-29T12:33:42;10.40;1.00
4058;DHT22;2044;48.692;9.020;2022-12-29T12:36:23;10.20;99.90
4058;DHT22;2044;48.692;9.020;2022-12-29T12:38:55;10.10;1.00
4058;DHT22;2044;48.692;9.020;2022-12-29T12:41:34;10.10;1.00
4058;DHT22;2044;48.692;9.020;2022-12-29T12:44:10;10.10;1.00
4058;DHT22;2044;48.692;9.020;2022-12-29T12:47:09;10.10;1.00
4058;DHT22;2044;48.692;9.020;2022-12-29T12:50:11;10.20;99.90
4058;DHT22;2044;48.692;9.020;2022-12-29T12:52:57;10.40;99.90
4058;DHT22;2044;48.692;9.020;2022-12-29T12:55:39;10.50;1.00
4058;DHT22;2044;48.692;9.020;2022-12-29T12:58:16;10.70;99.90
4058;DHT22;2044;48.692;9.020;2022-12-29T13:00:51;10.90;99.90
4058;DHT22;2044;48.692;9.020;2022-12-29T13:03:26;11.10;1.00
4058;DHT22;2044;48.692;9.020;2022-12-29T13:06:07;10.90;1.00
4058;DHT22;2044;48.692;9.020;2022-12-29T13:09:00;10.70;1.00
4058;DHT22;2044;48.692;9.020;2022-12-29T13:11:35;10.70;18.40
4058;DHT22;2044;48.692;9.020;2022-12-29T13:14:16;10.70;55.60
4058;DHT22;2044;48.692;9.020;2022-12-29T13:16:50;10.80;1.00
4058;DHT22;2044;48.692;9.020;2022-12-29T13:19:24;11.10;99.90
4058;DHT22;2044;48.692;9.020;2022-12-29T13:22:04;11.20;1.00
4058;DHT22;2044;48.692;9.020;2022-12-29T13:24:42;11.00;1.00
4058;DHT22;2044;48.692;9.020;2022-12-29T13:27:17;10.70;1.00
4058;DHT22;2044;48.692;9.020;2022-12-29T13:29:53;10.70;1.00
4058;DHT22;2044;48.692;9.020;2022-12-29T13:32:32;10.70;1.00
4058;DHT22;2044;48.692;9.020;2022-12-29T13:35:10;10.60;1.00
4058;DHT22;2044;48.692;9.020;2022-12-29T13:37:47;10.60;91.30
4058;DHT22;2044;48.692;9.020;2022-12-29T13:40:18;10.60;99.90
4058;DHT22;2044;48.692;9.020;2022-12-29T13:42:48;10.60;99.90
4058;DHT22;2044;48.692;9.020;2022-12-29T13:45:17;10.60;99.90
4058;DHT22;2044;48.692;9.020;2022-12-29T13:47:49;10.60;99.90
4058;DHT22;2044;48.692;9.020;2022-12-29T13:50:19;10.60;1.00
4058;DHT22;2044;48.692;9.020;2022-12-29T13:52:54;10.60;1.00
4058;DHT22;2044;48.692;9.020;2022-12-29T13:55:26;10.50;1.00
4058;DHT22;2044;48.692;9.020;2022-12-29T13:57:58;10.50;1.00
4058;DHT22;2044;48.692;9.020;2022-12-29T14:00:29;10.50;1.00
4058;DHT22;2044;48.692;9.020;2022-12-29T14:03:19;10.80;1.00
4058;DHT22;2044;48.692;9.020;2022-12-29T14:06:04;11.00;99.90
4058;DHT22;2044;48.692;9.020;2022-12-29T14:08:34;11.00;1.00
4058;DHT22;2044;48.692;9.020;2022-12-29T14:11:07;10.90;1.00
4058;DHT22;2044;48.692;9.020;2022-12-29T14:13:37;10.70;99.90
4058;DHT22;2044;48.692;9.020;2022-12-29T14:16:06;10.50;99.90
4058;DHT22;2044;48.692;9.020;2022-12-29T14:18:34;10.30;1.00
4058;DHT22;2044;48.692;9.020;2022-12-29T14:21:17;10.40;1.00
4058;DHT22;2044;48.692;9.020;2022-12-29T14:23:48;10.40;4.50
4058;DHT22;2044;48.692;9.020;2022-12-29T14:26:18;10.60;93.00
4058;DHT22;2044;48.692;9.020;2022-12-29T14:29:15;10.70;1.00
4058;DHT22;2044;48.692;9.020;2022-12-29T14:31:42;10.60;99.90
4058;DHT22;2044;48.692;9.020;2022-12-29T14:34:25;10.60;99.90
4058;DHT22;2044;48.692;9.020;2022-12-29T14:36:54;10.50;1.00
4058;DHT22;2044;48.692;9.020;2022-12-29T14:39:42;10.40;99.90
4058;DHT22;2044;48.692;9.020;2022-12-29T14:42:13;10.30;1.00
4058;DHT22;2044;48.692;9.020;2022-12-29T14:44:48;10.20;1.00
4058;DHT22;2044;48.692;9.020;2022-12-29T14:47:19;10.30;1.00
4058;DHT22;2044;48.692;9.020;2022-12-29T14:49:46;10.20;1.00
4058;DHT22;2044;48.692;9.020;2022-12-29T14:52:17;10.20;1.00
4058;DHT22;2044;48.692;9.020;2022-12-29T14:54:54;10.20;1.00
4058;DHT22;2044;48.692;9.020;2022-12-29T14:57:33;10.10;1.00
4058;DHT22;2044;48.692;9.020;2022-12-29T15:00:17;10.00;1.00
4058;DHT22;2044;48.692;9.020;2022-12-29T15:02:47;10.00;1.00
4058;DHT22;2044;48.692;9.020;2022-12-29T15:05:31;10.10;99.90
4058;DHT22;2044;48.692;9.020;2022-12-29T15:08:00;10.40;99.90
4058;DHT22;2044;48.692;9.020;2022-12-29T15:10:34;10.10;99.90
4058;DHT22;2044;48.692;9.020;2022-12-29T15:13:04;10.10;36.80
4058;DHT22;2044;48.692;9.020;2022-12-29T15:15:37;10.10;27.20
4058;DHT22;2044;48.692;9.020;2022-12-29T15:18:18;10.10;11.60
4058;DHT22;2044;48.692;9.020;2022-12-29T15:20:50;10.00;99.90
4058;DHT22;2044;48.692;9.020;2022-12-29T15:23:17;10.10;99.90
4058;DHT22;2044;48.692;9.020;2022-12-29T15:25:52;10.20;1.00
4058;DHT22;2044;48.692;9.020;2022-12-29T15:28:20;10.20;1.00
4058;DHT22;2044;48.692;9.020;2022-12-29T15:30:53;10.10;1.00
4058;DHT22;2044;48.692;9.020;2022-12-29T15:33:22;10.20;1.00
4058;DHT22;2044;48.692;9.020;2022-12-29T15:35:50;10.20;1.00
4058;DHT22;2044;48.692;9.020;2022-12-29T15:38:22;10.10;1.00
4058;DHT22;2044;48.692;9.020;2022-12-29T15:40:54;10.10;1.00
4058;DHT22;2044;48.692;9.020;2022-12-29T15:43:40;10.10;1.00
4058;DHT22;2044;48.692;9.020;2022-12-29T15:46:11;10.10;1.00
4058;DHT22;2044;48.692;9.020;2022-12-29T15:48:38;10.00;1.00
4058;DHT22;2044;48.692;9.020;2022-12-29T15:51:17;10.00;1.00
4058;DHT22;2044;48.692;9.020;2022-12-29T15:53:47;10.00;1.00
4058;DHT22;2044;48.692;9.020;2022-12-29T15:56:16;10.00;14.10
4058;DHT22;2044;48.692;9.020;2022-12-29T15:58:44;10.10;1.00
4058;DHT22;2044;48.692;9.020;2022-12-29T16:01:30;10.00;23.00
4058;DHT22;2044;48.692;9.020;2022-12-29T16:03:58;10.00;62.80
4058;DHT22;2044;48.692;9.020;2022-12-29T16:06:28;9.80;1.00
4058;DHT22;2044;48.692;9.020;2022-12-29T16:08:57;9.40;99.90
4058;DHT22;2044;48.692;9.020;2022-12-29T16:11:27;8.70;1.00
4058;DHT22;2044;48.692;9.020;2022-12-29T16:13:57;8.70;1.00
4058;DHT22;2044;48.692;9.020;2022-12-29T16:16:28;8.50;16.40
4058;DHT22;2044;48.692;9.020;2022-12-29T16:18:55;8.30;99.90
4058;DHT22;2044;48.692;9.020;2022-12-29T16:21:25;8.10;99.90
4058;DHT22;2044;48.692;9.020;2022-12-29T16:23:55;8.10;99.90
4058;DHT22;2044;48.692;9.020;2022-12-29T16:26:24;8.00;99.90
4058;DHT22;2044;48.692;9.020;2022-12-29T16:28:55;7.90;99.90
4058;DHT22;2044;48.692;9.020;2022-12-29T16:31:24;7.80;99.90
4058;DHT22;2044;48.692;9.020;2022-12-29T16:33:52;7.80;99.90
4058;DHT22;2044;48.692;9.020;2022-12-29T16:36:29;7.70;1.00
4058;DHT22;2044;48.692;9.020;2022-12-29T16:39:19;7.70;1.00
4058;DHT22;2044;48.692;9.020;2022-12-29T16:41:49;7.70;1.00
4058;DHT22;2044;48.692;9.020;2022-12-29T16:44:17;7.60;1.00
4058;DHT22;2044;48.692;9.020;2022-12-29T16:49:47;7.60;1.00
4058;DHT22;2044;48.692;9.020;2022-12-29T16:52:19;7.60;1.00
4058;DHT22;2044;48.692;9.020;2022-12-29T16:54:54;7.60;1.00